sensor_id;sensor_type;location;lat;lon;timestamp;pressure;altitude;pressure_sealevel;temperature;humidity
13235;BME280;6683;48.506;9.050;2022-08-02T00:00:10;98317.25;;;21.24;68.68
13235;BME280;6683;48.506;9.050;2022-08-02T00:03:13;98313.97;;;21.17;68.61
13235;BME280;6683;48.506;9.050;2022-08-02T00:06:15;98307.72;;;21.11;68.72
13235;BME280;6683;48.506;9.050;2022-08-02T00:09:18;98306.03;;;21.05;68.62
13235;BME280;6683;48.506;9.050;2022-08-02T00:12:22;98307.84;;;21.00;68.49
13235;BME280;6683;48.506;9.050;2022-08-02T00:15:24;98310.22;;;20.96;68.62
13235;BME280;6683;48.506;9.050;2022-08-02T00:18:27;98318.44;;;20.90;68.65
13235;BME280;6683;48.506;9.050;2022-08-02T00:21:30;98319.75;;;20.87;68.97
13235;BME280;6683;48.506;9.050;2022-08-02T00:24:32;98311.16;;;20.85;68.88
13235;BME280;6683;48.506;9.050;2022-08-02T00:27:37;98314.09;;;20.84;68.95
13235;BME280;6683;48.506;9.050;2022-08-02T00:30:39;98315.94;;;20.83;69.07
13235;BME280;6683;48.506;9.050;2022-08-02T00:33:41;98319.94;;;20.81;69.28
13235;BME280;6683;48.506;9.050;2022-08-02T00:36:43;98322.63;;;20.81;69.35
13235;BME280;6683;48.506;9.050;2022-08-02T00:39:46;98324.19;;;20.77;69.18
13235;BME280;6683;48.506;9.050;2022-08-02T00:43:02;98327.13;;;20.75;69.35
13235;BME280;6683;48.506;9.050;2022-08-02T00:46:06;98327.13;;;20.75;69.36
13235;BME280;6683;48.506;9.050;2022-08-02T00:49:09;98322.56;;;20.76;69.49
13235;BME280;6683;48.506;9.050;2022-08-02T00:52:12;98326.84;;;20.77;69.33
13235;BME280;6683;48.506;9.050;2022-08-02T00:55:15;98325.00;;;20.77;69.75
13235;BME280;6683;48.506;9.050;2022-08-02T00:58:18;98318.31;;;20.80;69.65
13235;BME280;6683;48.506;9.050;2022-08-02T01:01:21;98305.69;;;20.80;69.77
13235;BME280;6683;48.506;9.050;2022-08-02T01:04:38;98301.97;;;20.81;69.85
13235;BME280;6683;48.506;9.050;2022-08-02T01:07:40;98299.84;;;20.83;69.69
13235;BME280;6683;48.506;9.050;2022-08-02T01:10:43;98298.22;;;20.82;69.86
13235;BME280;6683;48.506;9.050;2022-08-02T01:13:47;98300.09;;;20.82;69.64
13235;BME280;6683;48.506;9.050;2022-08-02T01:16:55;98300.59;;;20.79;69.76
13235;BME280;6683;48.506;9.050;2022-08-02T01:20:24;98292.25;;;20.75;69.73
13235;BME280;6683;48.506;9.050;2022-08-02T01:23:47;98299.72;;;20.73;69.71
13235;BME280;6683;48.506;9.050;2022-08-02T01:27:06;98298.59;;;20.69;69.76
13235;BME280;6683;48.506;9.050;2022-08-02T01:30:14;98307.13;;;20.66;69.98
13235;BME280;6683;48.506;9.050;2022-08-02T01:33:18;98306.81;;;20.62;69.96
13235;BME280;6683;48.506;9.050;2022-08-02T01:36:23;98310.25;;;20.58;69.90
13235;BME280;6683;48.506;9.050;2022-08-02T01:39:30;98314.75;;;20.52;69.99
13235;BME280;6683;48.506;9.050;2022-08-02T01:42:39;98316.50;;;20.47;70.13
13235;BME280;6683;48.506;9.050;2022-08-02T01:45:44;98315.13;;;20.44;70.11
13235;BME280;6683;48.506;9.050;2022-08-02T01:48:48;98318.31;;;20.41;70.08
13235;BME280;6683;48.506;9.050;2022-08-02T01:51:52;98310.75;;;20.38;70.05
13235;BME280;6683;48.506;9.050;2022-08-02T01:55:18;98309.63;;;20.34;69.83
13235;BME280;6683;48.506;9.050;2022-08-02T01:58:25;98314.13;;;20.29;69.81
13235;BME280;6683;48.506;9.050;2022-08-02T02:01:31;98310.56;;;20.23;69.63
13235;BME280;6683;48.506;9.050;2022-08-02T02:04:35;98321.16;;;20.18;69.92
13235;BME280;6683;48.506;9.050;2022-08-02T02:07:40;98308.72;;;20.12;69.67
13235;BME280;6683;48.506;9.050;2022-08-02T02:10:44;98314.81;;;20.08;69.77
13235;BME280;6683;48.506;9.050;2022-08-02T02:13:48;98322.19;;;20.01;69.66
13235;BME280;6683;48.506;9.050;2022-08-02T02:16:53;98317.25;;;19.92;69.62
13235;BME280;6683;48.506;9.050;2022-08-02T02:19:57;98317.19;;;19.87;69.68
13235;BME280;6683;48.506;9.050;2022-08-02T02:23:01;98311.72;;;19.82;69.74
13235;BME280;6683;48.506;9.050;2022-08-02T02:26:07;98313.25;;;19.78;69.72
13235;BME280;6683;48.506;9.050;2022-08-02T02:29:12;98307.03;;;19.73;69.67
13235;BME280;6683;48.506;9.050;2022-08-02T02:32:18;98307.75;;;19.68;69.69
13235;BME280;6683;48.506;9.050;2022-08-02T02:35:22;98303.66;;;19.66;69.67
13235;BME280;6683;48.506;9.050;2022-08-02T02:38:29;98307.06;;;19.61;69.72
13235;BME280;6683;48.506;9.050;2022-08-02T02:41:31;98316.16;;;19.60;69.71
13235;BME280;6683;48.506;9.050;2022-08-02T02:44:35;98311.28;;;19.57;69.78
13235;BME280;6683;48.506;9.050;2022-08-02T02:47:41;98304.06;;;19.58;69.94
13235;BME280;6683;48.506;9.050;2022-08-02T02:50:44;98307.31;;;19.60;70.00
13235;BME280;6683;48.506;9.050;2022-08-02T02:53:48;98305.47;;;19.60;70.23
13235;BME280;6683;48.506;9.050;2022-08-02T02:56:52;98296.34;;;19.61;70.13
13235;BME280;6683;48.506;9.050;2022-08-02T02:59:55;98290.22;;;19.61;70.20
13235;BME280;6683;48.506;9.050;2022-08-02T03:02:59;98288.56;;;19.60;70.12
13235;BME280;6683;48.506;9.050;2022-08-02T03:06:03;98292.28;;;19.59;70.27
13235;BME280;6683;48.506;9.050;2022-08-02T03:09:06;98289.03;;;19.57;70.03
13235;BME280;6683;48.506;9.050;2022-08-02T03:12:09;98289.28;;;19.55;70.17
13235;BME280;6683;48.506;9.050;2022-08-02T03:15:13;98290.34;;;19.54;70.22
13235;BME280;6683;48.506;9.050;2022-08-02T03:18:32;98289.22;;;19.50;70.27
13235;BME280;6683;48.506;9.050;2022-08-02T03:21:34;98297.47;;;19.49;70.19
13235;BME280;6683;48.506;9.050;2022-08-02T03:24:36;98295.84;;;19.48;70.21
13235;BME280;6683;48.506;9.050;2022-08-02T03:27:39;98293.41;;;19.46;70.32
13235;BME280;6683;48.506;9.050;2022-08-02T03:30:42;98295.50;;;19.44;70.24
13235;BME280;6683;48.506;9.050;2022-08-02T03:33:46;98295.19;;;19.41;70.36
13235;BME280;6683;48.506;9.050;2022-08-02T03:36:53;98303.47;;;19.39;70.31
13235;BME280;6683;48.506;9.050;2022-08-02T03:39:56;98289.19;;;19.34;70.27
13235;BME280;6683;48.506;9.050;2022-08-02T03:43:00;98292.88;;;19.33;70.33
13235;BME280;6683;48.506;9.050;2022-08-02T03:46:04;98304.84;;;19.30;70.22
13235;BME280;6683;48.506;9.050;2022-08-02T03:49:10;98301.59;;;19.28;70.47
13235;BME280;6683;48.506;9.050;2022-08-02T03:52:13;98297.31;;;19.27;70.34
13235;BME280;6683;48.506;9.050;2022-08-02T03:55:16;98310.34;;;19.24;70.34
13235;BME280;6683;48.506;9.050;2022-08-02T03:58:21;98314.09;;;19.23;70.27
13235;BME280;6683;48.506;9.050;2022-08-02T04:01:23;98306.31;;;19.21;70.28
13235;BME280;6683;48.506;9.050;2022-08-02T04:04:27;98313.78;;;19.19;70.58
13235;BME280;6683;48.506;9.050;2022-08-02T04:07:29;98314.81;;;19.18;70.26
13235;BME280;6683;48.506;9.050;2022-08-02T04:10:32;98320.63;;;19.15;70.35
13235;BME280;6683;48.506;9.050;2022-08-02T04:13:56;98319.25;;;19.12;70.41
13235;BME280;6683;48.506;9.050;2022-08-02T04:17:05;98318.09;;;19.08;70.51
13235;BME280;6683;48.506;9.050;2022-08-02T04:20:17;98337.06;;;19.07;70.35
13235;BME280;6683;48.506;9.050;2022-08-02T04:23:22;98327.41;;;19.06;70.43
13235;BME280;6683;48.506;9.050;2022-08-02T04:26:26;98336.84;;;19.08;70.37
13235;BME280;6683;48.506;9.050;2022-08-02T04:29:29;98334.94;;;19.09;70.42
13235;BME280;6683;48.506;9.050;2022-08-02T04:32:34;98340.09;;;19.10;70.52
13235;BME280;6683;48.506;9.050;2022-08-02T04:35:38;98347.06;;;19.11;70.50
13235;BME280;6683;48.506;9.050;2022-08-02T04:38:41;98345.53;;;19.15;70.57
13235;BME280;6683;48.506;9.050;2022-08-02T04:41:44;98345.88;;;19.19;70.57
13235;BME280;6683;48.506;9.050;2022-08-02T04:44:47;98344.81;;;19.20;70.67
13235;BME280;6683;48.506;9.050;2022-08-02T04:47:50;98340.84;;;19.23;70.76
13235;BME280;6683;48.506;9.050;2022-08-02T04:50:54;98346.28;;;19.28;70.70
13235;BME280;6683;48.506;9.050;2022-08-02T04:53:57;98346.66;;;19.31;70.63
13235;BME280;6683;48.506;9.050;2022-08-02T04:56:59;98342.72;;;19.34;70.72
13235;BME280;6683;48.506;9.050;2022-08-02T05:00:04;98352.94;;;19.37;70.68
13235;BME280;6683;48.506;9.050;2022-08-02T05:03:07;98347.34;;;19.38;70.53
13235;BME280;6683;48.506;9.050;2022-08-02T05:06:11;98345.81;;;19.42;70.61
13235;BME280;6683;48.506;9.050;2022-08-02T05:09:14;98346.94;;;19.46;70.61
13235;BME280;6683;48.506;9.050;2022-08-02T05:12:16;98350.81;;;19.50;70.70
13235;BME280;6683;48.506;9.050;2022-08-02T05:15:21;98343.16;;;19.59;70.55
13235;BME280;6683;48.506;9.050;2022-08-02T05:18:24;98340.91;;;19.67;70.54
13235;BME280;6683;48.506;9.050;2022-08-02T05:21:29;98340.88;;;19.79;70.30
13235;BME280;6683;48.506;9.050;2022-08-02T05:24:32;98334.97;;;19.93;70.46
13235;BME280;6683;48.506;9.050;2022-08-02T05:27:35;98341.63;;;20.08;70.42
13235;BME280;6683;48.506;9.050;2022-08-02T05:30:37;98339.91;;;20.18;70.44
13235;BME280;6683;48.506;9.050;2022-08-02T05:33:40;98346.84;;;20.31;70.58
13235;BME280;6683;48.506;9.050;2022-08-02T05:36:44;98350.56;;;20.46;70.70
13235;BME280;6683;48.506;9.050;2022-08-02T05:39:46;98347.78;;;20.58;70.32
13235;BME280;6683;48.506;9.050;2022-08-02T05:42:49;98346.06;;;20.68;70.43
13235;BME280;6683;48.506;9.050;2022-08-02T05:45:51;98340.84;;;20.79;70.46
13235;BME280;6683;48.506;9.050;2022-08-02T05:48:54;98338.06;;;20.90;70.60
13235;BME280;6683;48.506;9.050;2022-08-02T05:52:05;98343.53;;;21.00;70.42
13235;BME280;6683;48.506;9.050;2022-08-02T05:55:14;98335.91;;;21.09;70.51
13235;BME280;6683;48.506;9.050;2022-08-02T05:58:24;98336.50;;;21.16;70.59
13235;BME280;6683;48.506;9.050;2022-08-02T06:01:33;98344.94;;;21.24;70.64
13235;BME280;6683;48.506;9.050;2022-08-02T06:04:53;98344.25;;;21.34;70.44
13235;BME280;6683;48.506;9.050;2022-08-02T06:07:59;98346.31;;;21.48;70.53
13235;BME280;6683;48.506;9.050;2022-08-02T06:11:05;98339.69;;;21.61;70.16
13235;BME280;6683;48.506;9.050;2022-08-02T06:14:08;98350.28;;;21.73;70.30
13235;BME280;6683;48.506;9.050;2022-08-02T06:17:13;98346.13;;;21.82;70.25
13235;BME280;6683;48.506;9.050;2022-08-02T06:20:16;98343.25;;;21.93;69.85
13235;BME280;6683;48.506;9.050;2022-08-02T06:23:20;98341.47;;;22.04;69.47
13235;BME280;6683;48.506;9.050;2022-08-02T06:26:24;98337.25;;;22.13;69.40
13235;BME280;6683;48.506;9.050;2022-08-02T06:29:27;98339.47;;;22.21;69.37
13235;BME280;6683;48.506;9.050;2022-08-02T06:32:33;98341.69;;;22.29;69.14
13235;BME280;6683;48.506;9.050;2022-08-02T06:35:44;98343.38;;;22.40;69.36
13235;BME280;6683;48.506;9.050;2022-08-02T06:38:55;98348.00;;;22.50;68.52
13235;BME280;6683;48.506;9.050;2022-08-02T06:42:11;98347.53;;;22.58;68.43
13235;BME280;6683;48.506;9.050;2022-08-02T06:45:13;98345.97;;;22.62;67.98
13235;BME280;6683;48.506;9.050;2022-08-02T06:48:16;98339.31;;;22.69;68.33
13235;BME280;6683;48.506;9.050;2022-08-02T06:51:19;98338.81;;;22.82;68.23
13235;BME280;6683;48.506;9.050;2022-08-02T06:54:23;98335.16;;;22.98;68.12
13235;BME280;6683;48.506;9.050;2022-08-02T06:57:26;98345.72;;;23.15;67.68
13235;BME280;6683;48.506;9.050;2022-08-02T07:00:30;98339.56;;;23.30;67.64
13235;BME280;6683;48.506;9.050;2022-08-02T07:03:33;98333.69;;;23.43;67.35
13235;BME280;6683;48.506;9.050;2022-08-02T07:06:36;98330.50;;;23.51;66.45
13235;BME280;6683;48.506;9.050;2022-08-02T07:09:40;98338.03;;;23.54;66.27
13235;BME280;6683;48.506;9.050;2022-08-02T07:12:42;98343.72;;;23.57;66.19
13235;BME280;6683;48.506;9.050;2022-08-02T07:15:45;98339.69;;;23.65;66.15
13235;BME280;6683;48.506;9.050;2022-08-02T07:18:47;98346.19;;;23.79;65.94
13235;BME280;6683;48.506;9.050;2022-08-02T07:21:49;98345.66;;;23.87;65.67
13235;BME280;6683;48.506;9.050;2022-08-02T07:24:55;98347.03;;;23.95;65.52
13235;BME280;6683;48.506;9.050;2022-08-02T07:27:57;98356.78;;;24.11;65.30
13235;BME280;6683;48.506;9.050;2022-08-02T07:30:59;98355.16;;;24.25;65.20
13235;BME280;6683;48.506;9.050;2022-08-02T07:34:01;98361.88;;;24.37;65.08
13235;BME280;6683;48.506;9.050;2022-08-02T07:37:03;98361.06;;;24.57;64.99
13235;BME280;6683;48.506;9.050;2022-08-02T07:40:10;98357.53;;;24.67;64.52
13235;BME280;6683;48.506;9.050;2022-08-02T07:43:12;98348.63;;;24.86;64.19
13235;BME280;6683;48.506;9.050;2022-08-02T07:46:15;98342.31;;;25.06;63.93
13235;BME280;6683;48.506;9.050;2022-08-02T07:49:18;98344.97;;;25.26;63.46
13235;BME280;6683;48.506;9.050;2022-08-02T07:52:22;98336.78;;;25.41;62.90
13235;BME280;6683;48.506;9.050;2022-08-02T07:55:26;98334.25;;;25.60;62.60
13235;BME280;6683;48.506;9.050;2022-08-02T07:58:29;98335.78;;;25.76;62.11
13235;BME280;6683;48.506;9.050;2022-08-02T08:01:31;98347.34;;;25.86;61.34
13235;BME280;6683;48.506;9.050;2022-08-02T08:04:34;98344.56;;;25.96;60.93
13235;BME280;6683;48.506;9.050;2022-08-02T08:07:37;98344.75;;;26.10;60.46
13235;BME280;6683;48.506;9.050;2022-08-02T08:10:41;98341.63;;;26.27;60.16
13235;BME280;6683;48.506;9.050;2022-08-02T08:13:43;98345.25;;;26.46;59.64
13235;BME280;6683;48.506;9.050;2022-08-02T08:16:46;98341.84;;;26.64;59.24
13235;BME280;6683;48.506;9.050;2022-08-02T08:19:48;98348.97;;;26.83;58.99
13235;BME280;6683;48.506;9.050;2022-08-02T08:22:50;98346.31;;;27.02;58.35
13235;BME280;6683;48.506;9.050;2022-08-02T08:25:54;98338.88;;;27.13;57.74
13235;BME280;6683;48.506;9.050;2022-08-02T08:28:57;98347.06;;;27.31;57.75
13235;BME280;6683;48.506;9.050;2022-08-02T08:32:00;98349.31;;;27.48;56.96
13235;BME280;6683;48.506;9.050;2022-08-02T08:35:03;98341.19;;;27.66;56.83
13235;BME280;6683;48.506;9.050;2022-08-02T08:38:07;98343.81;;;27.90;56.98
13235;BME280;6683;48.506;9.050;2022-08-02T08:41:13;98345.16;;;28.11;56.52
13235;BME280;6683;48.506;9.050;2022-08-02T08:44:16;98344.00;;;28.31;56.77
13235;BME280;6683;48.506;9.050;2022-08-02T08:47:20;98339.94;;;28.47;55.91
13235;BME280;6683;48.506;9.050;2022-08-02T08:50:25;98330.22;;;28.60;55.57
13235;BME280;6683;48.506;9.050;2022-08-02T08:53:29;98334.66;;;28.69;54.47
13235;BME280;6683;48.506;9.050;2022-08-02T08:56:35;98333.25;;;28.72;54.34
13235;BME280;6683;48.506;9.050;2022-08-02T08:59:37;98330.16;;;28.78;54.20
13235;BME280;6683;48.506;9.050;2022-08-02T09:02:40;98329.13;;;28.88;53.69
13235;BME280;6683;48.506;9.050;2022-08-02T09:05:43;98321.19;;;29.05;53.26
13235;BME280;6683;48.506;9.050;2022-08-02T09:08:48;98326.94;;;29.31;52.87
13235;BME280;6683;48.506;9.050;2022-08-02T09:11:52;98310.66;;;29.53;52.18
13235;BME280;6683;48.506;9.050;2022-08-02T09:14:54;98317.31;;;29.74;51.87
13235;BME280;6683;48.506;9.050;2022-08-02T09:17:56;98319.66;;;29.89;51.06
13235;BME280;6683;48.506;9.050;2022-08-02T09:21:01;98320.72;;;30.02;50.72
13235;BME280;6683;48.506;9.050;2022-08-02T09:24:16;98318.25;;;30.14;50.83
13235;BME280;6683;48.506;9.050;2022-08-02T09:27:21;98308.09;;;30.28;50.31
13235;BME280;6683;48.506;9.050;2022-08-02T09:30:26;98307.91;;;30.46;50.06
13235;BME280;6683;48.506;9.050;2022-08-02T09:33:28;98311.19;;;30.65;49.27
13235;BME280;6683;48.506;9.050;2022-08-02T09:36:38;98300.69;;;30.81;48.75
13235;BME280;6683;48.506;9.050;2022-08-02T09:39:43;98298.38;;;30.97;48.25
13235;BME280;6683;48.506;9.050;2022-08-02T09:42:58;98299.03;;;31.11;47.67
13235;BME280;6683;48.506;9.050;2022-08-02T09:46:10;98296.19;;;31.24;47.63
13235;BME280;6683;48.506;9.050;2022-08-02T09:49:15;98291.09;;;31.40;47.25
13235;BME280;6683;48.506;9.050;2022-08-02T09:52:24;98293.38;;;31.64;46.45
13235;BME280;6683;48.506;9.050;2022-08-02T09:55:26;98288.25;;;31.79;45.81
13235;BME280;6683;48.506;9.050;2022-08-02T09:58:30;98274.44;;;31.84;45.70
13235;BME280;6683;48.506;9.050;2022-08-02T10:01:39;98278.59;;;32.07;45.68
13235;BME280;6683;48.506;9.050;2022-08-02T10:04:42;98286.28;;;32.31;45.29
13235;BME280;6683;48.506;9.050;2022-08-02T10:07:44;98275.34;;;32.40;44.69
13235;BME280;6683;48.506;9.050;2022-08-02T10:10:47;98280.59;;;32.53;44.30
13235;BME280;6683;48.506;9.050;2022-08-02T10:14:02;98280.06;;;32.68;43.70
13235;BME280;6683;48.506;9.050;2022-08-02T10:17:06;98275.84;;;32.79;42.95
13235;BME280;6683;48.506;9.050;2022-08-02T10:20:09;98269.19;;;32.89;42.05
13235;BME280;6683;48.506;9.050;2022-08-02T10:23:13;98272.88;;;32.93;41.95
13235;BME280;6683;48.506;9.050;2022-08-02T10:26:18;98262.41;;;32.95;41.69
13235;BME280;6683;48.506;9.050;2022-08-02T10:29:29;98252.53;;;33.11;41.81
13235;BME280;6683;48.506;9.050;2022-08-02T10:32:36;98257.41;;;33.47;41.60
13235;BME280;6683;48.506;9.050;2022-08-02T10:35:41;98255.03;;;33.87;40.93
13235;BME280;6683;48.506;9.050;2022-08-02T10:38:43;98253.91;;;34.20;40.39
13235;BME280;6683;48.506;9.050;2022-08-02T10:41:49;98252.81;;;34.33;39.24
13235;BME280;6683;48.506;9.050;2022-08-02T10:45:08;98252.72;;;34.42;39.47
13235;BME280;6683;48.506;9.050;2022-08-02T10:48:12;98246.53;;;34.45;39.40
13235;BME280;6683;48.506;9.050;2022-08-02T10:51:14;98244.53;;;34.54;39.59
13235;BME280;6683;48.506;9.050;2022-08-02T10:54:18;98240.09;;;34.86;38.65
13235;BME280;6683;48.506;9.050;2022-08-02T10:57:23;98236.66;;;35.01;37.64
13235;BME280;6683;48.506;9.050;2022-08-02T11:00:28;98240.41;;;35.20;37.71
13235;BME280;6683;48.506;9.050;2022-08-02T11:03:36;98241.38;;;35.52;36.40
13235;BME280;6683;48.506;9.050;2022-08-02T11:07:14;98229.63;;;36.23;36.48
13235;BME280;6683;48.506;9.050;2022-08-02T11:10:33;98230.03;;;36.68;35.53
13235;BME280;6683;48.506;9.050;2022-08-02T11:13:59;98224.31;;;37.08;35.13
13235;BME280;6683;48.506;9.050;2022-08-02T11:17:12;98220.84;;;37.45;34.33
13235;BME280;6683;48.506;9.050;2022-08-02T11:20:19;98214.13;;;37.81;33.84
13235;BME280;6683;48.506;9.050;2022-08-02T11:23:35;98215.19;;;37.96;32.77
13235;BME280;6683;48.506;9.050;2022-08-02T11:26:43;98214.41;;;38.18;31.94
13235;BME280;6683;48.506;9.050;2022-08-02T11:29:46;98209.72;;;38.41;31.82
13235;BME280;6683;48.506;9.050;2022-08-02T11:32:54;98209.13;;;38.74;31.30
13235;BME280;6683;48.506;9.050;2022-08-02T11:36:02;98206.63;;;38.91;30.73
13235;BME280;6683;48.506;9.050;2022-08-02T11:39:09;98200.72;;;38.93;30.47
13235;BME280;6683;48.506;9.050;2022-08-02T11:42:12;98215.41;;;38.97;30.51
13235;BME280;6683;48.506;9.050;2022-08-02T11:45:15;98201.38;;;38.83;29.87
13235;BME280;6683;48.506;9.050;2022-08-02T11:48:31;98191.59;;;38.89;28.96
13235;BME280;6683;48.506;9.050;2022-08-02T11:51:34;98202.28;;;38.90;29.37
13235;BME280;6683;48.506;9.050;2022-08-02T11:54:40;98201.38;;;39.09;29.33
13235;BME280;6683;48.506;9.050;2022-08-02T11:57:42;98195.69;;;39.25;28.64
13235;BME280;6683;48.506;9.050;2022-08-02T12:00:48;98198.66;;;39.39;29.15
13235;BME280;6683;48.506;9.050;2022-08-02T12:03:51;98193.47;;;39.37;28.33
13235;BME280;6683;48.506;9.050;2022-08-02T12:06:59;98187.94;;;39.37;28.69
13235;BME280;6683;48.506;9.050;2022-08-02T12:10:06;98186.28;;;39.29;28.04
13235;BME280;6683;48.506;9.050;2022-08-02T12:13:09;98179.63;;;39.34;28.60
13235;BME280;6683;48.506;9.050;2022-08-02T12:16:12;98175.88;;;39.19;28.81
13235;BME280;6683;48.506;9.050;2022-08-02T12:19:34;98184.25;;;39.00;28.64
13235;BME280;6683;48.506;9.050;2022-08-02T12:22:37;98190.28;;;38.79;28.51
13235;BME280;6683;48.506;9.050;2022-08-02T12:25:40;98187.72;;;38.45;28.42
13235;BME280;6683;48.506;9.050;2022-08-02T12:28:43;98181.50;;;38.06;28.54
13235;BME280;6683;48.506;9.050;2022-08-02T12:31:47;98180.03;;;37.89;28.47
13235;BME280;6683;48.506;9.050;2022-08-02T12:35:07;98180.88;;;37.74;28.56
13235;BME280;6683;48.506;9.050;2022-08-02T12:38:10;98179.81;;;37.59;28.54
13235;BME280;6683;48.506;9.050;2022-08-02T12:41:13;98178.03;;;37.32;28.64
13235;BME280;6683;48.506;9.050;2022-08-02T12:44:16;98176.28;;;37.24;28.42
13235;BME280;6683;48.506;9.050;2022-08-02T12:47:19;98168.03;;;37.24;28.58
13235;BME280;6683;48.506;9.050;2022-08-02T12:50:27;98167.56;;;37.38;28.25
13235;BME280;6683;48.506;9.050;2022-08-02T12:53:32;98168.50;;;37.45;28.12
13235;BME280;6683;48.506;9.050;2022-08-02T12:56:38;98156.47;;;37.53;28.23
13235;BME280;6683;48.506;9.050;2022-08-02T12:59:42;98153.22;;;37.48;27.98
13235;BME280;6683;48.506;9.050;2022-08-02T13:02:45;98151.56;;;37.43;28.37
13235;BME280;6683;48.506;9.050;2022-08-02T13:05:49;98140.53;;;37.43;27.89
13235;BME280;6683;48.506;9.050;2022-08-02T13:08:53;98141.34;;;37.44;27.72
13235;BME280;6683;48.506;9.050;2022-08-02T13:11:55;98138.72;;;37.51;27.86
13235;BME280;6683;48.506;9.050;2022-08-02T13:14:58;98145.75;;;37.48;27.80
13235;BME280;6683;48.506;9.050;2022-08-02T13:18:00;98148.53;;;37.33;27.80
13235;BME280;6683;48.506;9.050;2022-08-02T13:21:05;98138.91;;;37.23;27.75
13235;BME280;6683;48.506;9.050;2022-08-02T13:24:08;98131.91;;;37.26;28.13
13235;BME280;6683;48.506;9.050;2022-08-02T13:27:14;98134.28;;;37.27;28.09
13235;BME280;6683;48.506;9.050;2022-08-02T13:30:17;98132.91;;;37.37;28.12
13235;BME280;6683;48.506;9.050;2022-08-02T13:33:20;98125.19;;;37.42;28.04
13235;BME280;6683;48.506;9.050;2022-08-02T13:36:24;98123.63;;;37.45;27.71
13235;BME280;6683;48.506;9.050;2022-08-02T13:39:26;98125.31;;;37.49;28.10
13235;BME280;6683;48.506;9.050;2022-08-02T13:42:29;98122.19;;;37.51;28.03
13235;BME280;6683;48.506;9.050;2022-08-02T13:45:32;98120.97;;;37.48;28.16
13235;BME280;6683;48.506;9.050;2022-08-02T13:48:34;98114.38;;;37.53;27.99
13235;BME280;6683;48.506;9.050;2022-08-02T13:51:38;98108.78;;;37.49;27.68
13235;BME280;6683;48.506;9.050;2022-08-02T13:54:41;98111.16;;;37.32;27.93
13235;BME280;6683;48.506;9.050;2022-08-02T13:57:43;98100.00;;;37.25;28.11
13235;BME280;6683;48.506;9.050;2022-08-02T14:00:45;98107.97;;;37.30;28.38
13235;BME280;6683;48.506;9.050;2022-08-02T14:03:48;98100.69;;;37.37;28.09
13235;BME280;6683;48.506;9.050;2022-08-02T14:06:52;98095.97;;;37.38;27.84
13235;BME280;6683;48.506;9.050;2022-08-02T14:09:54;98093.22;;;37.38;28.23
13235;BME280;6683;48.506;9.050;2022-08-02T14:12:57;98102.72;;;37.40;28.33
13235;BME280;6683;48.506;9.050;2022-08-02T14:15:59;98097.69;;;37.27;28.19
13235;BME280;6683;48.506;9.050;2022-08-02T14:19:02;98090.06;;;37.20;28.60
13235;BME280;6683;48.506;9.050;2022-08-02T14:22:07;98094.72;;;37.16;28.17
13235;BME280;6683;48.506;9.050;2022-08-02T14:25:09;98089.50;;;37.11;28.56
13235;BME280;6683;48.506;9.050;2022-08-02T14:28:12;98087.19;;;36.94;28.33
13235;BME280;6683;48.506;9.050;2022-08-02T14:31:14;98091.19;;;36.81;28.52
13235;BME280;6683;48.506;9.050;2022-08-02T14:34:16;98082.72;;;36.70;28.46
13235;BME280;6683;48.506;9.050;2022-08-02T14:37:20;98092.03;;;36.66;28.41
13235;BME280;6683;48.506;9.050;2022-08-02T14:40:23;98087.59;;;36.61;28.67
13235;BME280;6683;48.506;9.050;2022-08-02T14:43:26;98083.84;;;36.50;28.67
13235;BME280;6683;48.506;9.050;2022-08-02T14:46:46;98075.06;;;36.29;28.61
13235;BME280;6683;48.506;9.050;2022-08-02T14:49:48;98075.25;;;36.05;28.97
13235;BME280;6683;48.506;9.050;2022-08-02T14:52:52;98066.09;;;35.85;28.75
13235;BME280;6683;48.506;9.050;2022-08-02T14:55:54;98060.97;;;35.68;29.32
13235;BME280;6683;48.506;9.050;2022-08-02T14:58:57;98061.53;;;35.46;29.27
13235;BME280;6683;48.506;9.050;2022-08-02T15:02:00;98064.75;;;35.20;29.33
13235;BME280;6683;48.506;9.050;2022-08-02T15:05:03;98070.88;;;35.02;29.86
13235;BME280;6683;48.506;9.050;2022-08-02T15:08:07;98064.16;;;34.87;30.21
13235;BME280;6683;48.506;9.050;2022-08-02T15:11:10;98060.66;;;34.75;29.87
13235;BME280;6683;48.506;9.050;2022-08-02T15:14:13;98067.75;;;34.64;30.03
13235;BME280;6683;48.506;9.050;2022-08-02T15:17:15;98063.09;;;34.52;30.30
13235;BME280;6683;48.506;9.050;2022-08-02T15:20:17;98059.66;;;34.43;30.81
13235;BME280;6683;48.506;9.050;2022-08-02T15:23:21;98064.94;;;34.36;30.68
13235;BME280;6683;48.506;9.050;2022-08-02T15:26:25;98064.34;;;34.30;30.80
13235;BME280;6683;48.506;9.050;2022-08-02T15:29:27;98064.47;;;34.22;30.67
13235;BME280;6683;48.506;9.050;2022-08-02T15:32:30;98065.38;;;34.14;30.69
13235;BME280;6683;48.506;9.050;2022-08-02T15:35:33;98057.63;;;34.04;31.27
13235;BME280;6683;48.506;9.050;2022-08-02T15:38:37;98062.06;;;33.96;31.12
13235;BME280;6683;48.506;9.050;2022-08-02T15:41:39;98063.75;;;33.89;31.81
13235;BME280;6683;48.506;9.050;2022-08-02T15:44:42;98064.00;;;33.83;31.77
13235;BME280;6683;48.506;9.050;2022-08-02T15:47:45;98061.91;;;33.80;31.72
13235;BME280;6683;48.506;9.050;2022-08-02T15:50:47;98058.63;;;33.75;32.17
13235;BME280;6683;48.506;9.050;2022-08-02T15:53:52;98050.16;;;33.68;31.76
13235;BME280;6683;48.506;9.050;2022-08-02T15:56:54;98058.25;;;33.64;31.87
13235;BME280;6683;48.506;9.050;2022-08-02T15:59:57;98061.53;;;33.58;32.19
13235;BME280;6683;48.506;9.050;2022-08-02T16:02:59;98061.09;;;33.56;32.32
13235;BME280;6683;48.506;9.050;2022-08-02T16:06:01;98059.22;;;33.48;32.39
13235;BME280;6683;48.506;9.050;2022-08-02T16:09:05;98055.56;;;33.44;32.48
13235;BME280;6683;48.506;9.050;2022-08-02T16:12:08;98050.41;;;33.42;32.64
13235;BME280;6683;48.506;9.050;2022-08-02T16:15:11;98052.13;;;33.47;32.88
13235;BME280;6683;48.506;9.050;2022-08-02T16:18:13;98051.59;;;33.53;32.48
13235;BME280;6683;48.506;9.050;2022-08-02T16:21:16;98038.16;;;33.60;32.30
13235;BME280;6683;48.506;9.050;2022-08-02T16:24:20;98050.59;;;33.70;32.73
13235;BME280;6683;48.506;9.050;2022-08-02T16:27:23;98052.56;;;33.81;32.42
13235;BME280;6683;48.506;9.050;2022-08-02T16:30:26;98049.69;;;33.90;32.26